sensor_id;sensor_type;location;lat;lon;timestamp;P1;durP1;ratioP1;P2;durP2;ratioP2
40847;SDS011;26570;50.962;5.340;2023-07-16T00:04:32;4.03;;;0.50;;
40847;SDS011;26570;50.962;5.340;2023-07-16T00:07:53;5.43;;;0.50;;
40847;SDS011;26570;50.962;5.340;2023-07-16T00:11:30;3.57;;;0.50;;
40847;SDS011;26570;50.962;5.340;2023-07-16T00:14:33;4.63;;;0.50;;
40847;SDS011;26570;50.962;5.340;2023-07-16T00:17:35;4.13;;;0.50;;
40847;SDS011;26570;50.962;5.340;2023-07-16T00:21:17;3.70;;;0.50;;
40847;SDS011;26570;50.962;5.340;2023-07-16T00:24:39;4.73;;;0.50;;
40847;SDS011;26570;50.962;5.340;2023-07-16T00:27:30;5.30;;;0.40;;
40847;SDS011;26570;50.962;5.340;2023-07-16T00:30:36;4.70;;;0.30;;
40847;SDS011;26570;50.962;5.340;2023-07-16T00:33:38;6.03;;;0.40;;
40847;SDS011;26570;50.962;5.340;2023-07-16T00:37:10;4.90;;;0.40;;
40847;SDS011;26570;50.962;5.340;2023-07-16T00:40:31;5.17;;;0.50;;
40847;SDS011;26570;50.962;5.340;2023-07-16T00:43:29;4.43;;;0.40;;
40847;SDS011;26570;50.962;5.340;2023-07-16T00:46:41;3.60;;;0.40;;
40847;SDS011;26570;50.962;5.340;2023-07-16T00:50:20;4.87;;;0.60;;
40847;SDS011;26570;50.962;5.340;2023-07-16T00:53:52;6.65;;;0.47;;
40847;SDS011;26570;50.962;5.340;2023-07-16T00:57:13;2.57;;;0.50;;
40847;SDS011;26570;50.962;5.340;2023-07-16T01:00:56;2.13;;;0.40;;
40847;SDS011;26570;50.962;5.340;2023-07-16T01:03:59;2.63;;;0.50;;
40847;SDS011;26570;50.962;5.340;2023-07-16T01:07:17;3.17;;;0.50;;
40847;SDS011;26570;50.962;5.340;2023-07-16T01:10:12;2.73;;;0.50;;
40847;SDS011;26570;50.962;5.340;2023-07-16T01:13:07;2.87;;;0.60;;
40847;SDS011;26570;50.962;5.340;2023-07-16T01:16:46;3.43;;;0.40;;
40847;SDS011;26570;50.962;5.340;2023-07-16T01:20:09;5.20;;;0.50;;
40847;SDS011;26570;50.962;5.340;2023-07-16T01:31:36;4.80;;;0.98;;
40847;SDS011;26570;50.962;5.340;2023-07-16T01:34:51;6.53;;;0.80;;
40847;SDS011;26570;50.962;5.340;2023-07-16T01:38:04;4.70;;;0.50;;
40847;SDS011;26570;50.962;5.340;2023-07-16T01:41:05;6.55;;;0.60;;
40847;SDS011;26570;50.962;5.340;2023-07-16T01:44:24;3.87;;;0.60;;
40847;SDS011;26570;50.962;5.340;2023-07-16T01:52:36;4.57;;;0.60;;
40847;SDS011;26570;50.962;5.340;2023-07-16T01:56:20;5.07;;;0.70;;
40847;SDS011;26570;50.962;5.340;2023-07-16T01:59:55;4.10;;;0.80;;
40847;SDS011;26570;50.962;5.340;2023-07-16T02:03:42;3.47;;;0.60;;
40847;SDS011;26570;50.962;5.340;2023-07-16T02:07:14;7.57;;;0.70;;
40847;SDS011;26570;50.962;5.340;2023-07-16T02:10:41;7.50;;;0.60;;
40847;SDS011;26570;50.962;5.340;2023-07-16T02:13:57;3.70;;;0.67;;
40847;SDS011;26570;50.962;5.340;2023-07-16T02:16:58;3.97;;;0.60;;
40847;SDS011;26570;50.962;5.340;2023-07-16T02:20:31;3.33;;;0.60;;
40847;SDS011;26570;50.962;5.340;2023-07-16T02:24:02;3.37;;;0.50;;
40847;SDS011;26570;50.962;5.340;2023-07-16T02:27:12;4.27;;;0.60;;
40847;SDS011;26570;50.962;5.340;2023-07-16T02:30:43;5.50;;;0.60;;
40847;SDS011;26570;50.962;5.340;2023-07-16T02:33:58;4.93;;;0.57;;
40847;SDS011;26570;50.962;5.340;2023-07-16T02:37:29;7.53;;;2.03;;
40847;SDS011;26570;50.962;5.340;2023-07-16T02:40:59;7.70;;;0.90;;
40847;SDS011;26570;50.962;5.340;2023-07-16T02:44:52;6.00;;;0.87;;
40847;SDS011;26570;50.962;5.340;2023-07-16T02:48:02;4.53;;;0.73;;
40847;SDS011;26570;50.962;5.340;2023-07-16T02:51:28;9.70;;;1.47;;
40847;SDS011;26570;50.962;5.340;2023-07-16T02:58:35;6.20;;;0.80;;
40847;SDS011;26570;50.962;5.340;2023-07-16T03:01:41;5.32;;;0.88;;
40847;SDS011;26570;50.962;5.340;2023-07-16T03:05:03;4.50;;;0.73;;
40847;SDS011;26570;50.962;5.340;2023-07-16T03:08:12;5.50;;;0.70;;
40847;SDS011;26570;50.962;5.340;2023-07-16T03:11:15;10.90;;;0.90;;
40847;SDS011;26570;50.962;5.340;2023-07-16T03:14:39;7.47;;;0.70;;
40847;SDS011;26570;50.962;5.340;2023-07-16T03:17:44;4.50;;;0.90;;
40847;SDS011;26570;50.962;5.340;2023-07-16T03:20:43;7.67;;;1.00;;
40847;SDS011;26570;50.962;5.340;2023-07-16T03:23:58;2.67;;;0.80;;
40847;SDS011;26570;50.962;5.340;2023-07-16T03:27:33;8.27;;;0.87;;
40847;SDS011;26570;50.962;5.340;2023-07-16T03:31:01;6.53;;;0.90;;
40847;SDS011;26570;50.962;5.340;2023-07-16T03:34:08;7.30;;;1.27;;
40847;SDS011;26570;50.962;5.340;2023-07-16T03:37:40;6.13;;;0.80;;
40847;SDS011;26570;50.962;5.340;2023-07-16T03:41:06;7.53;;;0.80;;
40847;SDS011;26570;50.962;5.340;2023-07-16T03:44:42;8.57;;;1.17;;
40847;SDS011;26570;50.962;5.340;2023-07-16T03:47:45;8.17;;;1.10;;
40847;SDS011;26570;50.962;5.340;2023-07-16T03:51:08;9.73;;;1.00;;
40847;SDS011;26570;50.962;5.340;2023-07-16T03:54:46;10.73;;;1.13;;
40847;SDS011;26570;50.962;5.340;2023-07-16T03:58:10;9.80;;;1.30;;
40847;SDS011;26570;50.962;5.340;2023-07-16T04:01:36;13.80;;;1.10;;
40847;SDS011;26570;50.962;5.340;2023-07-16T04:05:06;8.80;;;0.90;;
40847;SDS011;26570;50.962;5.340;2023-07-16T04:08:14;7.00;;;1.00;;
40847;SDS011;26570;50.962;5.340;2023-07-16T04:11:34;10.00;;;1.10;;
40847;SDS011;26570;50.962;5.340;2023-07-16T04:19:16;11.33;;;1.00;;
40847;SDS011;26570;50.962;5.340;2023-07-16T04:30:08;7.67;;;1.13;;
40847;SDS011;26570;50.962;5.340;2023-07-16T04:41:39;8.57;;;1.07;;
40847;SDS011;26570;50.962;5.340;2023-07-16T04:49:06;5.23;;;1.00;;
40847;SDS011;26570;50.962;5.340;2023-07-16T04:52:29;6.67;;;1.70;;
40847;SDS011;26570;50.962;5.340;2023-07-16T04:59:34;6.70;;;1.23;;
40847;SDS011;26570;50.962;5.340;2023-07-16T05:03:16;6.97;;;1.17;;
40847;SDS011;26570;50.962;5.340;2023-07-16T05:06:35;12.20;;;1.77;;
40847;SDS011;26570;50.962;5.340;2023-07-16T05:10:04;8.17;;;1.53;;
40847;SDS011;26570;50.962;5.340;2023-07-16T05:13:02;5.17;;;1.40;;
40847;SDS011;26570;50.962;5.340;2023-07-16T05:16:23;3.93;;;1.30;;
40847;SDS011;26570;50.962;5.340;2023-07-16T05:20:01;9.13;;;1.90;;
40847;SDS011;26570;50.962;5.340;2023-07-16T05:23:17;8.90;;;2.03;;
40847;SDS011;26570;50.962;5.340;2023-07-16T05:26:38;10.03;;;2.03;;
40847;SDS011;26570;50.962;5.340;2023-07-16T05:29:58;9.50;;;2.10;;
40847;SDS011;26570;50.962;5.340;2023-07-16T05:32:47;7.67;;;1.80;;
40847;SDS011;26570;50.962;5.340;2023-07-16T05:36:08;11.20;;;1.93;;
40847;SDS011;26570;50.962;5.340;2023-07-16T05:39:35;7.47;;;2.40;;
40847;SDS011;26570;50.962;5.340;2023-07-16T05:42:55;6.73;;;2.47;;
40847;SDS011;26570;50.962;5.340;2023-07-16T05:45:54;6.17;;;1.77;;
40847;SDS011;26570;50.962;5.340;2023-07-16T05:48:52;5.97;;;1.70;;
40847;SDS011;26570;50.962;5.340;2023-07-16T05:51:43;18.40;;;2.67;;
40847;SDS011;26570;50.962;5.340;2023-07-16T05:54:45;11.00;;;2.60;;
40847;SDS011;26570;50.962;5.340;2023-07-16T05:58:11;8.50;;;2.40;;
40847;SDS011;26570;50.962;5.340;2023-07-16T06:01:10;14.00;;;2.73;;
40847;SDS011;26570;50.962;5.340;2023-07-16T06:04:47;13.77;;;3.10;;
40847;SDS011;26570;50.962;5.340;2023-07-16T06:08:13;8.10;;;2.20;;
40847;SDS011;26570;50.962;5.340;2023-07-16T06:14:40;9.47;;;3.10;;
40847;SDS011;26570;50.962;5.340;2023-07-16T06:18:07;12.47;;;3.50;;
40847;SDS011;26570;50.962;5.340;2023-07-16T06:21:32;8.70;;;1.80;;
40847;SDS011;26570;50.962;5.340;2023-07-16T06:24:58;10.53;;;2.40;;
40847;SDS011;26570;50.962;5.340;2023-07-16T06:27:58;9.75;;;2.85;;
40847;SDS011;26570;50.962;5.340;2023-07-16T06:31:05;10.75;;;2.08;;
40847;SDS011;26570;50.962;5.340;2023-07-16T06:34:16;10.45;;;2.28;;
40847;SDS011;26570;50.962;5.340;2023-07-16T06:37:20;10.57;;;2.10;;
40847;SDS011;26570;50.962;5.340;2023-07-16T06:40:19;6.65;;;1.70;;
40847;SDS011;26570;50.962;5.340;2023-07-16T06:43:23;5.60;;;1.85;;
40847;SDS011;26570;50.962;5.340;2023-07-16T06:46:22;4.68;;;1.52;;
40847;SDS011;26570;50.962;5.340;2023-07-16T06:49:39;7.13;;;1.70;;
40847;SDS011;26570;50.962;5.340;2023-07-16T06:53:13;8.38;;;2.05;;
40847;SDS011;26570;50.962;5.340;2023-07-16T06:56:39;6.00;;;2.20;;
40847;SDS011;26570;50.962;5.340;2023-07-16T06:59:36;7.20;;;2.00;;
40847;SDS011;26570;50.962;5.340;2023-07-16T07:02:35;9.30;;;2.33;;
40847;SDS011;26570;50.962;5.340;2023-07-16T07:05:46;10.07;;;1.90;;
40847;SDS011;26570;50.962;5.340;2023-07-16T07:09:14;9.65;;;1.90;;
40847;SDS011;26570;50.962;5.340;2023-07-16T07:16:19;7.25;;;2.13;;
40847;SDS011;26570;50.962;5.340;2023-07-16T07:30:55;6.97;;;2.00;;
40847;SDS011;26570;50.962;5.340;2023-07-16T07:37:33;9.35;;;2.53;;
40847;SDS011;26570;50.962;5.340;2023-07-16T07:40:25;8.18;;;2.10;;
40847;SDS011;26570;50.962;5.340;2023-07-16T07:43:46;5.07;;;1.73;;
40847;SDS011;26570;50.962;5.340;2023-07-16T07:46:37;7.18;;;1.98;;
40847;SDS011;26570;50.962;5.340;2023-07-16T07:53:59;5.93;;;1.90;;
40847;SDS011;26570;50.962;5.340;2023-07-16T07:57:46;6.32;;;1.58;;
40847;SDS011;26570;50.962;5.340;2023-07-16T08:01:20;3.95;;;1.15;;
40847;SDS011;26570;50.962;5.340;2023-07-16T08:04:22;6.88;;;1.67;;
40847;SDS011;26570;50.962;5.340;2023-07-16T08:11:09;7.60;;;1.83;;
40847;SDS011;26570;50.962;5.340;2023-07-16T08:14:35;6.28;;;1.45;;
40847;SDS011;26570;50.962;5.340;2023-07-16T08:17:42;4.55;;;1.35;;
40847;SDS011;26570;50.962;5.340;2023-07-16T08:20:47;8.65;;;2.20;;
40847;SDS011;26570;50.962;5.340;2023-07-16T08:24:11;6.70;;;1.50;;
40847;SDS011;26570;50.962;5.340;2023-07-16T08:27:02;7.85;;;1.77;;
40847;SDS011;26570;50.962;5.340;2023-07-16T08:30:34;5.32;;;1.20;;
40847;SDS011;26570;50.962;5.340;2023-07-16T08:33:40;6.18;;;1.38;;
40847;SDS011;26570;50.962;5.340;2023-07-16T08:37:24;5.90;;;1.77;;
40847;SDS011;26570;50.962;5.340;2023-07-16T08:44:21;6.72;;;1.33;;
40847;SDS011;26570;50.962;5.340;2023-07-16T08:47:34;4.78;;;1.33;;
40847;SDS011;26570;50.962;5.340;2023-07-16T08:50:59;4.30;;;1.02;;
40847;SDS011;26570;50.962;5.340;2023-07-16T08:54:33;3.88;;;1.00;;
40847;SDS011;26570;50.962;5.340;2023-07-16T08:57:32;5.60;;;1.25;;
40847;SDS011;26570;50.962;5.340;2023-07-16T09:01:02;4.47;;;1.10;;
40847;SDS011;26570;50.962;5.340;2023-07-16T09:04:32;3.65;;;0.80;;
40847;SDS011;26570;50.962;5.340;2023-07-16T09:08:14;3.20;;;1.00;;
40847;SDS011;26570;50.962;5.340;2023-07-16T09:11:11;3.20;;;1.33;;
40847;SDS011;26570;50.962;5.340;2023-07-16T09:14:30;4.70;;;1.33;;
40847;SDS011;26570;50.962;5.340;2023-07-16T09:17:53;4.53;;;0.80;;
40847;SDS011;26570;50.962;5.340;2023-07-16T09:21:01;2.47;;;0.80;;
40847;SDS011;26570;50.962;5.340;2023-07-16T09:24:08;2.83;;;0.70;;
40847;SDS011;26570;50.962;5.340;2023-07-16T09:27:13;4.20;;;0.80;;
40847;SDS011;26570;50.962;5.340;2023-07-16T09:30:32;2.72;;;0.80;;
40847;SDS011;26570;50.962;5.340;2023-07-16T09:33:35;3.50;;;0.70;;
40847;SDS011;26570;50.962;5.340;2023-07-16T09:36:28;3.75;;;0.70;;
40847;SDS011;26570;50.962;5.340;2023-07-16T09:39:22;4.28;;;0.60;;
40847;SDS011;26570;50.962;5.340;2023-07-16T09:42:14;3.10;;;0.80;;
40847;SDS011;26570;50.962;5.340;2023-07-16T09:45:17;2.37;;;0.80;;
40847;SDS011;26570;50.962;5.340;2023-07-16T09:48:39;5.93;;;0.60;;
40847;SDS011;26570;50.962;5.340;2023-07-16T09:55:26;3.15;;;0.60;;
40847;SDS011;26570;50.962;5.340;2023-07-16T10:02:12;4.80;;;0.90;;
40847;SDS011;26570;50.962;5.340;2023-07-16T10:05:24;5.05;;;0.70;;
40847;SDS011;26570;50.962;5.340;2023-07-16T10:08:49;4.50;;;0.50;;
40847;SDS011;26570;50.962;5.340;2023-07-16T10:12:06;1.58;;;0.43;;
40847;SDS011;26570;50.962;5.340;2023-07-16T10:19:26;2.70;;;0.57;;
40847;SDS011;26570;50.962;5.340;2023-07-16T10:26:30;2.65;;;0.60;;
40847;SDS011;26570;50.962;5.340;2023-07-16T10:29:33;3.67;;;0.93;;
40847;SDS011;26570;50.962;5.340;2023-07-16T10:33:22;4.15;;;0.90;;
40847;SDS011;26570;50.962;5.340;2023-07-16T10:36:22;2.70;;;0.60;;
40847;SDS011;26570;50.962;5.340;2023-07-16T10:39:34;5.72;;;0.60;;
40847;SDS011;26570;50.962;5.340;2023-07-16T10:42:44;2.78;;;0.73;;
40847;SDS011;26570;50.962;5.340;2023-07-16T10:45:39;3.17;;;0.70;;
40847;SDS011;26570;50.962;5.340;2023-07-16T10:48:38;1.90;;;0.60;;
40847;SDS011;26570;50.962;5.340;2023-07-16T10:52:36;5.88;;;0.60;;
40847;SDS011;26570;50.962;5.340;2023-07-16T10:55:28;5.03;;;0.70;;
40847;SDS011;26570;50.962;5.340;2023-07-16T11:06:08;3.55;;;0.60;;
40847;SDS011;26570;50.962;5.340;2023-07-16T11:13:16;2.65;;;0.70;;
40847;SDS011;26570;50.962;5.340;2023-07-16T11:16:12;4.88;;;0.90;;
40847;SDS011;26570;50.962;5.340;2023-07-16T11:19:33;3.47;;;1.10;;
40847;SDS011;26570;50.962;5.340;2023-07-16T11:22:28;5.60;;;0.70;;
40847;SDS011;26570;50.962;5.340;2023-07-16T11:25:49;2.72;;;0.70;;
40847;SDS011;26570;50.962;5.340;2023-07-16T11:28:58;2.95;;;0.93;;
40847;SDS011;26570;50.962;5.340;2023-07-16T11:39:43;2.55;;;0.80;;
40847;SDS011;26570;50.962;5.340;2023-07-16T11:42:42;3.70;;;0.65;;
40847;SDS011;26570;50.962;5.340;2023-07-16T11:45:47;6.72;;;0.68;;
40847;SDS011;26570;50.962;5.340;2023-07-16T11:48:42;2.70;;;0.60;;
40847;SDS011;26570;50.962;5.340;2023-07-16T12:02:40;5.85;;;0.80;;
40847;SDS011;26570;50.962;5.340;2023-07-16T12:09:18;3.50;;;0.70;;
40847;SDS011;26570;50.962;5.340;2023-07-16T12:12:10;3.55;;;0.70;;
40847;SDS011;26570;50.962;5.340;2023-07-16T12:15:03;4.05;;;0.60;;
40847;SDS011;26570;50.962;5.340;2023-07-16T12:17:54;2.25;;;0.60;;
40847;SDS011;26570;50.962;5.340;2023-07-16T12:23:54;1.92;;;0.50;;
40847;SDS011;26570;50.962;5.340;2023-07-16T12:29:59;1.98;;;0.60;;
40847;SDS011;26570;50.962;5.340;2023-07-16T12:33:47;4.18;;;2.08;;
40847;SDS011;26570;50.962;5.340;2023-07-16T12:36:40;5.50;;;0.60;;
40847;SDS011;26570;50.962;5.340;2023-07-16T12:39:42;2.50;;;0.50;;
40847;SDS011;26570;50.962;5.340;2023-07-16T12:42:35;5.75;;;0.60;;
40847;SDS011;26570;50.962;5.340;2023-07-16T12:46:22;4.32;;;0.60;;
40847;SDS011;26570;50.962;5.340;2023-07-16T12:52:56;3.25;;;0.70;;
40847;SDS011;26570;50.962;5.340;2023-07-16T12:56:21;4.35;;;0.52;;
40847;SDS011;26570;50.962;5.340;2023-07-16T12:59:18;3.90;;;0.60;;
40847;SDS011;26570;50.962;5.340;2023-07-16T13:02:23;2.15;;;0.50;;
40847;SDS011;26570;50.962;5.340;2023-07-16T13:09:05;2.45;;;0.57;;
40847;SDS011;26570;50.962;5.340;2023-07-16T13:12:28;2.40;;;0.50;;
40847;SDS011;26570;50.962;5.340;2023-07-16T13:15:17;2.07;;;0.60;;
40847;SDS011;26570;50.962;5.340;2023-07-16T13:18:11;2.25;;;0.60;;
40847;SDS011;26570;50.962;5.340;2023-07-16T13:21:11;2.10;;;0.55;;
40847;SDS011;26570;50.962;5.340;2023-07-16T13:24:00;3.67;;;0.60;;
40847;SDS011;26570;50.962;5.340;2023-07-16T13:26:51;4.97;;;0.88;;
40847;SDS011;26570;50.962;5.340;2023-07-16T13:30:01;1.80;;;0.50;;
40847;SDS011;26570;50.962;5.340;2023-07-16T13:32:53;1.55;;;0.55;;
40847;SDS011;26570;50.962;5.340;2023-07-16T13:35:46;2.67;;;0.60;;
40847;SDS011;26570;50.962;5.340;2023-07-16T13:38:54;2.45;;;0.70;;
40847;SDS011;26570;50.962;5.340;2023-07-16T13:42:10;2.97;;;0.60;;
40847;SDS011;26570;50.962;5.340;2023-07-16T13:45:05;2.30;;;0.70;;
40847;SDS011;26570;50.962;5.340;2023-07-16T13:48:20;5.13;;;0.70;;
40847;SDS011;26570;50.962;5.340;2023-07-16T13:51:23;10.10;;;0.88;;
40847;SDS011;26570;50.962;5.340;2023-07-16T13:54:24;3.45;;;0.90;;
40847;SDS011;26570;50.962;5.340;2023-07-16T13:57:26;3.38;;;0.70;;
40847;SDS011;26570;50.962;5.340;2023-07-16T14:00:32;1.73;;;0.60;;
40847;SDS011;26570;50.962;5.340;2023-07-16T14:03:49;3.08;;;0.60;;
40847;SDS011;26570;50.962;5.340;2023-07-16T14:06:47;2.08;;;0.50;;
40847;SDS011;26570;50.962;5.340;2023-07-16T14:12:44;1.40;;;0.50;;
40847;SDS011;26570;50.962;5.340;2023-07-16T14:15:40;4.30;;;0.57;;
40847;SDS011;26570;50.962;5.340;2023-07-16T14:18:30;1.42;;;0.40;;
40847;SDS011;26570;50.962;5.340;2023-07-16T14:21:22;2.92;;;0.50;;
40847;SDS011;26570;50.962;5.340;2023-07-16T14:24:16;1.98;;;0.50;;
40847;SDS011;26570;50.962;5.340;2023-07-16T14:27:47;3.65;;;0.50;;
40847;SDS011;26570;50.962;5.340;2023-07-16T14:30:38;2.08;;;0.50;;
40847;SDS011;26570;50.962;5.340;2023-07-16T14:33:31;1.98;;;0.40;;
40847;SDS011;26570;50.962;5.340;2023-07-16T14:36:22;2.42;;;0.50;;
40847;SDS011;26570;50.962;5.340;2023-07-16T14:39:19;1.30;;;0.47;;
40847;SDS011;26570;50.962;5.340;2023-07-16T14:42:07;3.33;;;0.50;;
40847;SDS011;26570;50.962;5.340;2023-07-16T14:45:07;2.22;;;0.40;;
40847;SDS011;26570;50.962;5.340;2023-07-16T14:48:22;2.25;;;0.50;;
40847;SDS011;26570;50.962;5.340;2023-07-16T14:51:26;4.22;;;0.60;;
40847;SDS011;26570;50.962;5.340;2023-07-16T14:54:24;2.53;;;0.50;;
40847;SDS011;26570;50.962;5.340;2023-07-16T14:57:19;2.72;;;0.50;;
40847;SDS011;26570;50.962;5.340;2023-07-16T15:00:15;2.10;;;0.60;;
40847;SDS011;26570;50.962;5.340;2023-07-16T15:03:34;2.97;;;0.65;;
40847;SDS011;26570;50.962;5.340;2023-07-16T15:06:27;2.72;;;0.65;;
40847;SDS011;26570;50.962;5.340;2023-07-16T15:09:22;3.90;;;0.60;;
40847;SDS011;26570;50.962;5.340;2023-07-16T15:12:25;2.95;;;0.60;;
40847;SDS011;26570;50.962;5.340;2023-07-16T15:15:17;2.58;;;0.60;;
40847;SDS011;26570;50.962;5.340;2023-07-16T15:21:01;1.77;;;0.80;;
40847;SDS011;26570;50.962;5.340;2023-07-16T15:24:00;3.13;;;0.60;;
40847;SDS011;26570;50.962;5.340;2023-07-16T15:26:53;2.70;;;0.60;;
40847;SDS011;26570;50.962;5.340;2023-07-16T15:30:17;2.13;;;0.63;;
40847;SDS011;26570;50.962;5.340;2023-07-16T15:33:37;3.55;;;0.65;;
40847;SDS011;26570;50.962;5.340;2023-07-16T15:36:25;2.03;;;0.50;;
40847;SDS011;26570;50.962;5.340;2023-07-16T15:39:22;3.35;;;0.70;;
40847;SDS011;26570;50.962;5.340;2023-07-16T15:42:41;3.88;;;0.70;;
40847;SDS011;26570;50.962;5.340;2023-07-16T15:46:04;4.07;;;0.60;;
40847;SDS011;26570;50.962;5.340;2023-07-16T15:49:01;3.20;;;0.60;;
40847;SDS011;26570;50.962;5.340;2023-07-16T15:52:03;2.65;;;0.88;;
40847;SDS011;26570;50.962;5.340;2023-07-16T15:55:22;9.52;;;1.13;;
40847;SDS011;26570;50.962;5.340;2023-07-16T16:01:48;4.97;;;0.90;;
40847;SDS011;26570;50.962;5.340;2023-07-16T16:08:18;5.18;;;0.77;;
40847;SDS011;26570;50.962;5.340;2023-07-16T16:11:46;3.65;;;0.75;;
40847;SDS011;26570;50.962;5.340;2023-07-16T16:15:15;2.55;;;0.70;;
40847;SDS011;26570;50.962;5.340;2023-07-16T16:22:21;3.20;;;0.75;;
40847;SDS011;26570;50.962;5.340;2023-07-16T16:25:20;6.13;;;0.85;;
40847;SDS011;26570;50.962;5.340;2023-07-16T16:28:13;9.23;;;1.45;;
40847;SDS011;26570;50.962;5.340;2023-07-16T16:31:10;3.95;;;0.75;;
40847;SDS011;26570;50.962;5.340;2023-07-16T16:34:06;3.15;;;0.80;;
40847;SDS011;26570;50.962;5.340;2023-07-16T16:37:06;6.13;;;1.10;;
40847;SDS011;26570;50.962;5.340;2023-07-16T16:40:31;7.18;;;0.98;;
40847;SDS011;26570;50.962;5.340;2023-07-16T16:43:26;6.85;;;0.80;;
40847;SDS011;26570;50.962;5.340;2023-07-16T16:46:38;6.13;;;0.85;;
40847;SDS011;26570;50.962;5.340;2023-07-16T16:49:50;5.45;;;0.80;;
40847;SDS011;26570;50.962;5.340;2023-07-16T16:53:09;4.85;;;0.82;;
40847;SDS011;26570;50.962;5.340;2023-07-16T16:56:09;2.22;;;0.75;;
40847;SDS011;26570;50.962;5.340;2023-07-16T16:59:41;3.85;;;0.90;;
40847;SDS011;26570;50.962;5.340;2023-07-16T17:02:34;4.07;;;0.80;;
40847;SDS011;26570;50.962;5.340;2023-07-16T17:06:01;3.53;;;0.60;;
40847;SDS011;26570;50.962;5.340;2023-07-16T17:09:03;2.50;;;0.65;;
40847;SDS011;26570;50.962;5.340;2023-07-16T17:12:11;2.67;;;0.90;;
40847;SDS011;26570;50.962;5.340;2023-07-16T17:15:13;4.32;;;0.90;;
40847;SDS011;26570;50.962;5.340;2023-07-16T17:18:14;7.28;;;1.23;;
40847;SDS011;26570;50.962;5.340;2023-07-16T17:21:19;3.42;;;0.80;;
40847;SDS011;26570;50.962;5.340;2023-07-16T17:24:14;6.50;;;1.00;;
40847;SDS011;26570;50.962;5.340;2023-07-16T17:27:32;4.53;;;0.70;;
40847;SDS011;26570;50.962;5.340;2023-07-16T17:30:30;3.42;;;0.68;;
40847;SDS011;26570;50.962;5.340;2023-07-16T17:33:21;3.72;;;0.80;;
40847;SDS011;26570;50.962;5.340;2023-07-16T17:36:16;3.92;;;0.70;;
40847;SDS011;26570;50.962;5.340;2023-07-16T17:39:18;4.25;;;0.82;;
40847;SDS011;26570;50.962;5.340;2023-07-16T17:42:28;4.22;;;0.70;;
40847;SDS011;26570;50.962;5.340;2023-07-16T17:45:45;3.33;;;1.00;;
40847;SDS011;26570;50.962;5.340;2023-07-16T17:49:29;3.70;;;0.80;;
40847;SDS011;26570;50.962;5.340;2023-07-16T17:52:25;3.92;;;0.60;;
40847;SDS011;26570;50.962;5.340;2023-07-16T17:55:50;2.17;;;0.80;;
40847;SDS011;26570;50.962;5.340;2023-07-16T17:58:41;4.03;;;0.98;;
40847;SDS011;26570;50.962;5.340;2023-07-16T18:01:38;6.05;;;0.70;;
40847;SDS011;26570;50.962;5.340;2023-07-16T18:08:51;3.35;;;0.95;;
40847;SDS011;26570;50.962;5.340;2023-07-16T18:12:32;2.75;;;0.93;;
40847;SDS011;26570;50.962;5.340;2023-07-16T18:15:57;4.57;;;0.80;;
40847;SDS011;26570;50.962;5.340;2023-07-16T18:19:21;4.32;;;0.93;;
40847;SDS011;26570;50.962;5.340;2023-07-16T18:22:30;2.42;;;0.70;;
40847;SDS011;26570;50.962;5.340;2023-07-16T18:25:36;3.80;;;0.80;;
40847;SDS011;26570;50.962;5.340;2023-07-16T18:28:55;5.38;;;1.00;;
40847;SDS011;26570;50.962;5.340;2023-07-16T18:31:49;5.65;;;0.80;;
40847;SDS011;26570;50.962;5.340;2023-07-16T18:34:54;4.40;;;1.20;;
40847;SDS011;26570;50.962;5.340;2023-07-16T18:37:49;4.93;;;1.00;;
40847;SDS011;26570;50.962;5.340;2023-07-16T18:41:07;2.95;;;0.70;;
40847;SDS011;26570;50.962;5.340;2023-07-16T18:44:12;2.25;;;0.60;;
40847;SDS011;26570;50.962;5.340;2023-07-16T18:47:48;2.45;;;0.80;;
40847;SDS011;26570;50.962;5.340;2023-07-16T18:50:42;7.10;;;1.30;;
40847;SDS011;26570;50.962;5.340;2023-07-16T18:53:48;3.67;;;1.02;;
40847;SDS011;26570;50.962;5.340;2023-07-16T18:56:49;5.90;;;0.77;;
40847;SDS011;26570;50.962;5.340;2023-07-16T18:59:47;3.70;;;1.33;;
40847;SDS011;26570;50.962;5.340;2023-07-16T19:06:11;2.65;;;0.70;;
40847;SDS011;26570;50.962;5.340;2023-07-16T19:09:58;2.35;;;0.70;;
40847;SDS011;26570;50.962;5.340;2023-07-16T19:12:51;2.70;;;0.70;;
40847;SDS011;26570;50.962;5.340;2023-07-16T19:15:46;4.97;;;0.75;;
40847;SDS011;26570;50.962;5.340;2023-07-16T19:19:17;3.65;;;0.90;;
40847;SDS011;26570;50.962;5.340;2023-07-16T19:22:39;5.05;;;0.80;;
40847;SDS011;26570;50.962;5.340;2023-07-16T19:26:02;2.63;;;0.82;;
40847;SDS011;26570;50.962;5.340;2023-07-16T19:36:50;4.03;;;0.90;;
40847;SDS011;26570;50.962;5.340;2023-07-16T19:40:14;2.38;;;0.80;;
40847;SDS011;26570;50.962;5.340;2023-07-16T19:43:31;3.25;;;0.80;;
40847;SDS011;26570;50.962;5.340;2023-07-16T19:46:36;4.50;;;0.82;;
40847;SDS011;26570;50.962;5.340;2023-07-16T19:49:48;4.03;;;0.80;;
40847;SDS011;26570;50.962;5.340;2023-07-16T19:53:14;2.40;;;0.85;;
40847;SDS011;26570;50.962;5.340;2023-07-16T19:56:40;3.17;;;0.88;;
40847;SDS011;26570;50.962;5.340;2023-07-16T20:00:05;5.70;;;1.00;;
40847;SDS011;26570;50.962;5.340;2023-07-16T20:03:02;4.32;;;1.15;;
40847;SDS011;26570;50.962;5.340;2023-07-16T20:06:11;3.42;;;0.70;;
40847;SDS011;26570;50.962;5.340;2023-07-16T20:09:06;2.35;;;0.70;;
40847;SDS011;26570;50.962;5.340;2023-07-16T20:12:09;1.90;;;0.70;;
40847;SDS011;26570;50.962;5.340;2023-07-16T20:15:04;2.47;;;0.70;;
40847;SDS011;26570;50.962;5.340;2023-07-16T20:18:19;3.83;;;0.80;;
40847;SDS011;26570;50.962;5.340;2023-07-16T20:21:53;3.72;;;0.90;;
40847;SDS011;26570;50.962;5.340;2023-07-16T20:24:49;2.38;;;0.95;;
40847;SDS011;26570;50.962;5.340;2023-07-16T20:27:40;5.68;;;0.95;;
40847;SDS011;26570;50.962;5.340;2023-07-16T20:33:43;3.40;;;0.90;;
40847;SDS011;26570;50.962;5.340;2023-07-16T20:36:33;4.33;;;0.90;;
40847;SDS011;26570;50.962;5.340;2023-07-16T20:39:27;3.77;;;0.90;;
40847;SDS011;26570;50.962;5.340;2023-07-16T20:42:17;3.97;;;1.00;;
40847;SDS011;26570;50.962;5.340;2023-07-16T20:48:29;5.03;;;0.80;;
40847;SDS011;26570;50.962;5.340;2023-07-16T20:51:26;5.00;;;1.17;;
40847;SDS011;26570;50.962;5.340;2023-07-16T20:54:19;4.97;;;1.00;;
40847;SDS011;26570;50.962;5.340;2023-07-16T20:57:22;5.03;;;1.10;;
40847;SDS011;26570;50.962;5.340;2023-07-16T21:00:46;3.13;;;1.10;;
40847;SDS011;26570;50.962;5.340;2023-07-16T21:03:38;5.90;;;1.00;;
40847;SDS011;26570;50.962;5.340;2023-07-16T21:07:02;8.05;;;1.27;;
40847;SDS011;26570;50.962;5.340;2023-07-16T21:09:53;3.63;;;1.13;;
40847;SDS011;26570;50.962;5.340;2023-07-16T21:12:44;5.33;;;1.10;;
40847;SDS011;26570;50.962;5.340;2023-07-16T21:15:36;4.73;;;0.90;;
40847;SDS011;26570;50.962;5.340;2023-07-16T21:18:37;3.83;;;0.90;;
40847;SDS011;26570;50.962;5.340;2023-07-16T21:21:30;4.00;;;1.13;;
40847;SDS011;26570;50.962;5.340;2023-07-16T21:24:22;4.10;;;1.03;;
40847;SDS011;26570;50.962;5.340;2023-07-16T21:27:19;3.80;;;1.30;;
40847;SDS011;26570;50.962;5.340;2023-07-16T21:30:24;2.80;;;0.93;;
40847;SDS011;26570;50.962;5.340;2023-07-16T21:33:13;3.80;;;1.50;;
40847;SDS011;26570;50.962;5.340;2023-07-16T21:38:58;3.20;;;0.80;;
40847;SDS011;26570;50.962;5.340;2023-07-16T21:42:20;3.53;;;1.00;;
40847;SDS011;26570;50.962;5.340;2023-07-16T21:45:09;3.23;;;1.27;;
40847;SDS011;26570;50.962;5.340;2023-07-16T21:47:57;3.97;;;1.00;;
40847;SDS011;26570;50.962;5.340;2023-07-16T21:50:50;5.07;;;1.00;;
40847;SDS011;26570;50.962;5.340;2023-07-16T21:53:38;3.27;;;0.90;;
40847;SDS011;26570;50.962;5.340;2023-07-16T21:56:29;3.03;;;0.90;;
40847;SDS011;26570;50.962;5.340;2023-07-16T21:59:21;6.13;;;1.40;;
40847;SDS011;26570;50.962;5.340;2023-07-16T22:02:17;4.43;;;1.10;;
40847;SDS011;26570;50.962;5.340;2023-07-16T22:05:19;3.17;;;0.90;;
40847;SDS011;26570;50.962;5.340;2023-07-16T22:08:47;4.87;;;1.03;;
40847;SDS011;26570;50.962;5.340;2023-07-16T22:11:41;4.93;;;1.10;;